createdAt,value
2022-11-20T00:00:06.216Z,10.28
2022-11-20T00:01:40.285Z,10.32
2022-11-20T00:03:13.895Z,10.36
2022-11-20T00:04:47.218Z,10.39
2022-11-20T00:06:22.007Z,10.40
2022-11-20T00:07:55.194Z,10.43
2022-11-20T00:09:28.498Z,10.43
2022-11-20T00:11:05.315Z,10.41
2022-11-20T00:12:38.524Z,10.44
2022-11-20T00:14:12.369Z,10.42
2022-11-20T00:15:45.653Z,10.32
2022-11-20T00:17:18.863Z,10.29
2022-11-20T00:18:54.015Z,10.24
2022-11-20T00:20:27.314Z,10.26
2022-11-20T00:22:00.505Z,10.29
2022-11-20T00:23:33.998Z,10.29
2022-11-20T00:25:07.614Z,10.29
2022-11-20T00:26:39.825Z,10.22
2022-11-20T00:28:13.929Z,10.26
2022-11-20T00:29:47.584Z,10.26
2022-11-20T00:31:20.013Z,10.24
2022-11-20T00:32:53.183Z,10.21
2022-11-20T00:34:27.873Z,10.23
2022-11-20T00:36:04.844Z,10.26
2022-11-20T00:37:38.068Z,10.19
2022-11-20T00:39:11.340Z,10.27
2022-11-20T00:40:44.550Z,10.33
2022-11-20T00:42:17.695Z,10.29
2022-11-20T00:43:50.983Z,10.31
2022-11-20T00:45:24.130Z,10.30
2022-11-20T00:46:57.355Z,10.32
2022-11-20T00:48:30.923Z,10.34
2022-11-20T00:50:06.225Z,10.33
2022-11-20T00:51:39.487Z,10.33
2022-11-20T00:53:11.598Z,10.34
2022-11-20T00:54:44.767Z,10.35
2022-11-20T00:56:20.491Z,10.38
2022-11-20T00:57:53.755Z,10.43
2022-11-20T00:59:26.992Z,10.46
2022-11-20T01:01:02.220Z,10.41
2022-11-20T01:02:35.473Z,10.52
2022-11-20T01:04:08.645Z,10.56
2022-11-20T01:05:42.210Z,10.57
2022-11-20T01:07:15.443Z,10.56
2022-11-20T01:08:49.293Z,10.55
2022-11-20T01:10:22.484Z,10.54
2022-11-20T01:11:55.750Z,10.54
2022-11-20T01:13:40.171Z,10.48
2022-11-20T01:15:13.333Z,10.52
2022-11-20T01:16:49.316Z,10.57
2022-11-20T01:18:21.499Z,10.58
2022-11-20T01:19:54.780Z,10.55
2022-11-20T01:21:31.301Z,10.57
2022-11-20T01:23:03.618Z,10.59
2022-11-20T01:24:36.852Z,10.50
2022-11-20T01:26:12.244Z,10.55
2022-11-20T01:27:45.390Z,10.61
2022-11-20T01:29:21.411Z,10.60
2022-11-20T01:30:53.693Z,10.56
2022-11-20T01:32:26.848Z,10.46
2022-11-20T01:34:03.042Z,10.45
2022-11-20T01:35:36.315Z,10.41
2022-11-20T01:37:10.920Z,10.43
2022-11-20T01:38:43.494Z,10.46
2022-11-20T01:40:16.707Z,10.42
2022-11-20T01:42:19.761Z,10.36
2022-11-20T01:43:51.934Z,10.41
2022-11-20T01:45:58.254Z,10.47
2022-11-20T01:47:36.847Z,10.51
2022-11-20T01:49:12.430Z,10.55
2022-11-20T01:50:46.652Z,10.58
2022-11-20T01:52:24.712Z,10.55
2022-11-20T01:54:01.227Z,10.51
2022-11-20T01:55:37.635Z,10.43
2022-11-20T01:57:13.193Z,10.40
2022-11-20T01:58:52.281Z,10.32
2022-11-20T02:00:25.588Z,10.23
2022-11-20T02:01:59.175Z,10.33
2022-11-20T02:03:31.912Z,10.29
2022-11-20T02:05:14.159Z,10.22
2022-11-20T02:06:51.795Z,10.22
2022-11-20T02:08:26.833Z,10.17
2022-11-20T02:10:00.010Z,10.23
2022-11-20T02:11:33.578Z,10.23
2022-11-20T02:13:25.109Z,10.24
2022-11-20T02:14:58.269Z,10.28
2022-11-20T02:16:34.328Z,10.29
2022-11-20T02:18:07.339Z,10.27
2022-11-20T02:19:41.059Z,10.27
2022-11-20T02:21:35.664Z,10.26
2022-11-20T02:23:14.886Z,10.28
2022-11-20T02:24:51.224Z,10.27
2022-11-20T02:26:26.244Z,10.28
2022-11-20T02:27:59.401Z,10.16
2022-11-20T02:29:37.732Z,10.21
2022-11-20T02:31:10.002Z,10.24
2022-11-20T02:32:43.351Z,10.31
2022-11-20T02:34:16.506Z,10.31
2022-11-20T02:35:48.828Z,10.40
2022-11-20T02:37:23.044Z,10.47
2022-11-20T02:38:56.515Z,10.52
2022-11-20T02:40:30.776Z,10.53
2022-11-20T02:42:04.254Z,10.61
2022-11-20T02:43:37.625Z,10.68
2022-11-20T02:45:11.440Z,10.74
2022-11-20T02:46:43.631Z,10.78
2022-11-20T02:48:17.097Z,10.78
2022-11-20T02:49:50.209Z,10.83
2022-11-20T02:51:22.576Z,10.86
2022-11-20T02:52:55.888Z,10.93
2022-11-20T02:54:29.032Z,10.94
2022-11-20T02:56:02.637Z,10.93
2022-11-20T02:57:36.020Z,10.89
2022-11-20T02:59:09.478Z,10.78
2022-11-20T03:00:41.697Z,10.79
2022-11-20T03:02:14.867Z,10.82
2022-11-20T03:03:49.569Z,10.84
2022-11-20T03:05:22.839Z,10.85
2022-11-20T03:06:56.035Z,10.89
2022-11-20T03:08:29.390Z,10.92
2022-11-20T03:10:02.785Z,10.94
2022-11-20T03:11:37.461Z,10.98
2022-11-20T03:13:10.630Z,10.99
2022-11-20T03:14:43.919Z,11.03
2022-11-20T03:16:19.694Z,10.98
2022-11-20T03:17:54.750Z,10.99
2022-11-20T03:19:28.027Z,11.01
2022-11-20T03:21:01.821Z,11.03
2022-11-20T03:22:35.069Z,10.97
2022-11-20T03:24:08.921Z,10.95
2022-11-20T03:25:41.176Z,11.01
2022-11-20T03:27:15.700Z,10.98
2022-11-20T03:28:51.063Z,10.92
2022-11-20T03:30:27.641Z,10.98
2022-11-20T03:32:03.669Z,10.90
2022-11-20T03:33:36.880Z,10.89
2022-11-20T03:35:11.009Z,10.89
2022-11-20T03:36:45.158Z,10.88
2022-11-20T03:38:18.415Z,10.85
2022-11-20T03:39:51.564Z,10.85
2022-11-20T03:41:26.756Z,10.84
2022-11-20T03:43:00.259Z,10.75
2022-11-20T03:44:33.480Z,10.76
2022-11-20T03:46:07.555Z,10.74
2022-11-20T03:47:39.750Z,10.79
2022-11-20T03:49:12.999Z,10.83
2022-11-20T03:50:45.172Z,10.81
2022-11-20T03:52:18.371Z,10.83
2022-11-20T03:53:53.900Z,10.90
2022-11-20T03:55:27.049Z,10.94
2022-11-20T03:57:00.297Z,10.99
2022-11-20T03:58:34.951Z,11.05
2022-11-20T04:00:09.200Z,11.09
2022-11-20T04:01:45.534Z,11.05
2022-11-20T04:03:22.410Z,11.04
2022-11-20T04:04:55.570Z,11.00
2022-11-20T04:06:31.367Z,11.02
2022-11-20T04:08:04.501Z,11.02
2022-11-20T04:09:37.635Z,11.00
2022-11-20T04:11:12.786Z,11.01
2022-11-20T04:12:46.107Z,11.02
2022-11-20T04:14:20.616Z,11.03
2022-11-20T04:15:53.824Z,11.04
2022-11-20T04:17:27.243Z,11.08
2022-11-20T04:19:02.041Z,11.10
2022-11-20T04:20:35.796Z,11.16
2022-11-20T04:22:09.590Z,11.21
2022-11-20T04:23:41.708Z,11.29
2022-11-20T04:25:14.996Z,11.33
2022-11-20T04:26:47.093Z,11.33
2022-11-20T04:28:20.248Z,11.35
2022-11-20T04:29:54.806Z,11.23
2022-11-20T04:31:30.135Z,11.39
2022-11-20T04:33:03.339Z,11.41
2022-11-20T04:34:36.586Z,11.33
2022-11-20T04:36:12.591Z,11.35
2022-11-20T04:37:45.716Z,11.36
2022-11-20T04:39:19.175Z,11.36
2022-11-20T04:40:51.589Z,11.37
2022-11-20T04:42:30.959Z,11.33
2022-11-20T04:44:06.469Z,11.39
2022-11-20T04:45:41.074Z,11.41
2022-11-20T04:47:14.274Z,11.45
2022-11-20T04:48:48.232Z,11.46
2022-11-20T04:50:21.446Z,11.50
2022-11-20T04:51:55.589Z,11.50
2022-11-20T04:53:28.814Z,11.49
2022-11-20T04:55:01.981Z,11.54
2022-11-20T04:56:34.292Z,11.45
2022-11-20T04:58:07.631Z,11.52
2022-11-20T04:59:40.774Z,11.42
2022-11-20T05:01:17.586Z,11.48
2022-11-20T05:02:50.775Z,11.50
2022-11-20T05:04:23.117Z,11.52
2022-11-20T05:05:56.364Z,11.47
2022-11-20T05:07:29.649Z,11.62
2022-11-20T05:09:02.107Z,11.67
2022-11-20T05:10:35.379Z,11.68
2022-11-20T05:12:09.858Z,11.68
2022-11-20T05:13:42.799Z,11.61
2022-11-20T05:15:16.238Z,11.67
2022-11-20T05:16:50.981Z,11.76
2022-11-20T05:18:24.202Z,11.82
2022-11-20T05:19:57.372Z,11.86
2022-11-20T05:21:32.918Z,11.84
2022-11-20T05:23:05.132Z,11.83
2022-11-20T05:24:38.275Z,11.85
2022-11-20T05:26:15.045Z,11.87
2022-11-20T05:27:48.282Z,11.85
2022-11-20T05:29:21.650Z,11.82
2022-11-20T05:30:55.037Z,11.78
2022-11-20T05:32:29.658Z,11.79
2022-11-20T05:34:02.863Z,11.79
2022-11-20T05:35:35.045Z,11.83
2022-11-20T05:37:08.163Z,11.86
2022-11-20T05:38:41.655Z,11.88
2022-11-20T05:40:15.472Z,11.94
2022-11-20T05:42:08.709Z,11.93
2022-11-20T05:43:43.747Z,11.89
2022-11-20T05:45:16.975Z,12.04
2022-11-20T05:46:50.280Z,12.09
2022-11-20T05:48:24.897Z,12.06
2022-11-20T05:49:58.102Z,12.16
2022-11-20T05:51:31.304Z,12.22
2022-11-20T05:53:03.482Z,12.23
2022-11-20T05:54:36.731Z,12.24
2022-11-20T05:56:13.040Z,12.30
2022-11-20T05:57:46.280Z,12.32
2022-11-20T05:59:19.745Z,12.32
2022-11-20T06:00:53.354Z,12.33
2022-11-20T06:02:26.936Z,12.32
2022-11-20T06:04:01.534Z,12.35
2022-11-20T06:05:36.018Z,12.37
2022-11-20T06:07:09.335Z,12.44
2022-11-20T06:08:42.779Z,12.51
2022-11-20T06:10:16.040Z,12.57
2022-11-20T06:11:49.215Z,12.67
2022-11-20T06:13:22.492Z,12.78
2022-11-20T06:14:55.691Z,12.89
2022-11-20T06:16:28.971Z,13.01
2022-11-20T06:18:01.142Z,13.14
2022-11-20T06:19:35.746Z,13.25
2022-11-20T06:21:10.914Z,13.38
2022-11-20T06:22:44.009Z,13.47
2022-11-20T06:24:17.783Z,13.51
2022-11-20T06:25:49.967Z,13.57
2022-11-20T06:27:23.131Z,13.62
2022-11-20T06:28:57.156Z,13.69
2022-11-20T06:30:30.388Z,13.71
2022-11-20T06:32:03.592Z,13.75
2022-11-20T06:33:36.877Z,13.75
2022-11-20T06:35:12.301Z,13.77
2022-11-20T06:36:45.562Z,13.75
2022-11-20T06:38:18.763Z,13.73
2022-11-20T06:39:52.039Z,13.73
2022-11-20T06:41:26.259Z,13.59
2022-11-20T06:42:59.450Z,13.56
2022-11-20T06:44:32.650Z,13.38
2022-11-20T06:46:06.347Z,13.19
2022-11-20T06:47:39.551Z,13.04
2022-11-20T06:49:12.656Z,12.82
2022-11-20T06:50:47.287Z,12.74
2022-11-20T06:52:20.400Z,12.68
2022-11-20T06:53:53.611Z,12.62
2022-11-20T06:55:26.817Z,12.55
2022-11-20T06:56:58.960Z,12.60
2022-11-20T06:58:33.808Z,12.63
2022-11-20T07:00:08.383Z,12.73
2022-11-20T07:01:41.596Z,12.73
2022-11-20T07:03:15.138Z,12.77
2022-11-20T07:04:48.353Z,12.81
2022-11-20T07:06:23.032Z,12.87
2022-11-20T07:07:58.133Z,12.94
2022-11-20T07:09:31.401Z,12.98
2022-11-20T07:11:06.599Z,13.06
2022-11-20T07:12:39.763Z,13.19
2022-11-20T07:14:12.917Z,13.27
2022-11-20T07:15:46.303Z,13.12
2022-11-20T07:17:19.529Z,13.15
2022-11-20T07:18:52.699Z,13.22
2022-11-20T07:20:25.931Z,13.24
2022-11-20T07:22:00.459Z,13.27
2022-11-20T07:23:33.812Z,13.28
2022-11-20T07:25:07.796Z,13.26
2022-11-20T07:26:40.949Z,13.22
2022-11-20T07:28:14.888Z,13.20
2022-11-20T07:29:48.068Z,13.09
2022-11-20T07:31:21.277Z,12.92
2022-11-20T07:32:55.191Z,12.85
2022-11-20T07:34:28.407Z,12.72
2022-11-20T07:36:01.911Z,12.47
2022-11-20T07:37:37.778Z,12.37
2022-11-20T07:39:10.980Z,12.34
2022-11-20T07:40:44.346Z,12.39
2022-11-20T07:42:17.652Z,12.44
2022-11-20T07:43:50.834Z,12.43
2022-11-20T07:45:25.787Z,12.62
2022-11-20T07:46:59.003Z,12.74
2022-11-20T07:48:32.138Z,12.74
2022-11-20T07:50:06.047Z,12.87
2022-11-20T07:51:39.285Z,13.02
2022-11-20T07:53:14.906Z,13.09
2022-11-20T07:54:48.083Z,13.18
2022-11-20T07:56:21.318Z,13.30
2022-11-20T07:57:57.639Z,13.27
2022-11-20T07:59:30.758Z,13.39
2022-11-20T08:01:08.505Z,13.52
2022-11-20T08:02:42.153Z,13.58
2022-11-20T08:04:17.187Z,13.61
2022-11-20T08:05:50.441Z,13.73
2022-11-20T08:07:23.744Z,13.68
2022-11-20T08:08:58.536Z,13.44
2022-11-20T08:10:31.731Z,13.35
2022-11-20T08:12:22.315Z,13.27
2022-11-20T08:14:12.744Z,13.32
2022-11-20T08:15:51.168Z,13.45
2022-11-20T08:17:24.402Z,13.59
2022-11-20T08:18:57.680Z,13.74
2022-11-20T08:20:30.887Z,13.77
2022-11-20T08:22:03.984Z,13.83
2022-11-20T08:23:37.219Z,13.80
2022-11-20T08:25:12.355Z,13.83
2022-11-20T08:26:45.501Z,13.89
2022-11-20T08:28:21.856Z,13.98
2022-11-20T08:29:55.493Z,13.98
2022-11-20T08:31:30.816Z,13.95
2022-11-20T08:33:06.556Z,13.87
2022-11-20T08:34:39.851Z,13.89
2022-11-20T08:36:13.044Z,13.81
2022-11-20T08:37:48.729Z,13.59
2022-11-20T08:39:22.210Z,13.48
2022-11-20T08:41:17.818Z,13.28
2022-11-20T08:42:52.018Z,13.20
2022-11-20T08:44:25.477Z,13.22
2022-11-20T08:45:58.921Z,13.25
2022-11-20T08:47:32.645Z,13.29
2022-11-20T08:49:07.032Z,13.20
2022-11-20T08:50:40.274Z,13.20
2022-11-20T08:52:13.411Z,13.26
2022-11-20T08:53:46.744Z,13.37
2022-11-20T08:55:20.084Z,13.44
2022-11-20T08:56:54.741Z,13.59
2022-11-20T08:58:28.325Z,13.63
2022-11-20T09:00:06.345Z,13.73
2022-11-20T09:01:40.161Z,13.79
2022-11-20T09:03:14.415Z,13.83
2022-11-20T09:04:47.767Z,13.88
2022-11-20T09:06:20.883Z,13.93
2022-11-20T09:07:54.204Z,14.02
2022-11-20T09:09:27.369Z,14.05
2022-11-20T09:11:01.515Z,14.11
2022-11-20T09:12:36.121Z,14.16
2022-11-20T09:14:09.441Z,14.22
2022-11-20T09:15:42.673Z,14.29
2022-11-20T09:17:15.996Z,14.34
2022-11-20T09:19:02.239Z,14.38
2022-11-20T09:20:45.244Z,14.48
2022-11-20T09:22:18.464Z,14.54
2022-11-20T09:23:51.706Z,14.35
2022-11-20T09:25:25.059Z,14.48
2022-11-20T09:26:58.239Z,14.51
2022-11-20T09:28:33.973Z,14.54
2022-11-20T09:30:08.380Z,14.55
2022-11-20T09:31:41.651Z,14.53
2022-11-20T09:33:14.980Z,14.60
2022-11-20T09:34:48.175Z,14.61
2022-11-20T09:36:21.919Z,14.65
2022-11-20T09:37:55.115Z,14.62
2022-11-20T09:39:28.372Z,14.66
2022-11-20T09:41:08.006Z,14.68
2022-11-20T09:42:47.569Z,14.70
2022-11-20T09:44:36.875Z,14.51
2022-11-20T09:46:19.345Z,14.49
2022-11-20T09:48:10.191Z,14.51
2022-11-20T09:50:02.175Z,14.62
2022-11-20T09:51:46.217Z,14.74
2022-11-20T09:53:29.491Z,14.84
2022-11-20T09:55:05.796Z,14.91
2022-11-20T09:56:42.283Z,15.00
2022-11-20T09:58:23.527Z,15.06
2022-11-20T10:00:01.629Z,15.12
2022-11-20T10:01:45.790Z,15.24
2022-11-20T10:03:25.762Z,15.28
2022-11-20T10:05:04.436Z,15.28
2022-11-20T10:06:44.358Z,15.33
2022-11-20T10:08:24.011Z,15.44
2022-11-20T10:09:58.614Z,15.48
2022-11-20T10:11:43.381Z,15.53
2022-11-20T10:13:29.347Z,15.46
2022-11-20T10:15:13.669Z,15.37
2022-11-20T10:16:55.846Z,15.37
2022-11-20T10:18:44.468Z,15.45
2022-11-20T10:20:26.785Z,15.52
2022-11-20T10:22:10.269Z,15.57
2022-11-20T10:23:59.155Z,15.67
2022-11-20T10:25:40.282Z,15.72
2022-11-20T10:27:32.211Z,15.80
2022-11-20T10:29:13.832Z,15.86
2022-11-20T10:30:53.973Z,15.91
2022-11-20T10:32:33.480Z,15.99
2022-11-20T10:34:19.399Z,16.03
2022-11-20T10:36:14.453Z,15.98
2022-11-20T10:37:51.127Z,16.09
2022-11-20T10:39:33.616Z,16.10
2022-11-20T10:41:27.037Z,16.09
2022-11-20T10:43:03.415Z,16.07
2022-11-20T10:44:56.819Z,16.05
2022-11-20T10:46:39.239Z,16.02
2022-11-20T10:48:19.173Z,16.13
2022-11-20T10:49:55.246Z,16.23
2022-11-20T10:51:38.582Z,16.27
2022-11-20T10:53:24.595Z,16.30
2022-11-20T10:55:07.300Z,16.24
2022-11-20T10:56:49.707Z,16.18
2022-11-20T10:58:32.212Z,16.03
2022-11-20T11:00:08.272Z,15.98
2022-11-20T11:01:44.800Z,15.95
2022-11-20T11:03:25.938Z,15.97
2022-11-20T11:05:01.652Z,16.00
2022-11-20T11:06:39.197Z,16.01
2022-11-20T11:08:17.506Z,15.95
2022-11-20T11:09:52.953Z,16.07
2022-11-20T11:11:29.660Z,16.14
2022-11-20T11:13:03.399Z,16.32
2022-11-20T11:14:45.108Z,16.43
2022-11-20T11:16:25.996Z,16.48
2022-11-20T11:18:00.608Z,16.45
2022-11-20T11:19:33.860Z,16.47
2022-11-20T11:21:07.554Z,16.44
2022-11-20T11:22:47.376Z,16.35
2022-11-20T11:24:41.785Z,16.19
2022-11-20T11:26:23.199Z,16.38
2022-11-20T11:28:01.978Z,16.49
2022-11-20T11:29:35.685Z,16.36
2022-11-20T11:31:08.922Z,16.46
2022-11-20T11:32:42.233Z,16.41
2022-11-20T11:34:18.961Z,16.37
2022-11-20T11:35:54.641Z,16.38
2022-11-20T11:37:37.029Z,16.41
2022-11-20T11:39:16.485Z,16.42
2022-11-20T11:40:49.770Z,16.39
2022-11-20T11:42:23.210Z,16.38
2022-11-20T11:44:30.745Z,16.27
2022-11-20T11:46:04.267Z,16.33
2022-11-20T11:47:45.145Z,16.30
2022-11-20T11:49:21.942Z,16.24
2022-11-20T11:50:55.460Z,16.07
2022-11-20T11:52:29.851Z,15.84
2022-11-20T11:54:07.748Z,15.80
2022-11-20T11:55:46.179Z,15.51
2022-11-20T11:57:27.139Z,15.44
2022-11-20T11:59:06.702Z,15.51
2022-11-20T12:00:43.747Z,15.49
2022-11-20T12:02:29.649Z,15.47
2022-11-20T12:04:08.149Z,15.46
2022-11-20T12:05:45.954Z,15.39
2022-11-20T12:07:46.146Z,15.46
2022-11-20T12:09:24.275Z,15.46
2022-11-20T12:11:03.182Z,15.50
2022-11-20T12:12:42.181Z,15.53
2022-11-20T12:14:25.009Z,15.51
2022-11-20T12:15:58.266Z,15.61
2022-11-20T12:17:31.471Z,15.55
2022-11-20T12:19:10.032Z,15.56
2022-11-20T12:20:50.482Z,15.50
2022-11-20T12:22:35.894Z,15.42
2022-11-20T12:24:28.085Z,15.28
2022-11-20T12:26:10.171Z,15.19
2022-11-20T12:28:19.140Z,15.12
2022-11-20T12:30:01.013Z,15.15
2022-11-20T12:31:48.310Z,15.17
2022-11-20T12:33:49.883Z,15.11
2022-11-20T12:35:50.057Z,14.98
2022-11-20T12:37:36.383Z,14.90
2022-11-20T12:39:24.695Z,14.88
2022-11-20T12:41:06.675Z,14.80
2022-11-20T12:43:13.329Z,14.80
2022-11-20T12:45:12.799Z,14.75
2022-11-20T12:46:50.180Z,14.83
2022-11-20T12:48:46.467Z,14.89
2022-11-20T12:50:30.598Z,14.96
2022-11-20T12:52:31.300Z,15.03
2022-11-20T12:54:22.196Z,15.07
2022-11-20T12:56:04.022Z,15.10
2022-11-20T12:57:48.678Z,15.15
2022-11-20T12:59:36.111Z,15.17
2022-11-20T13:01:40.788Z,15.17
2022-11-20T13:03:41.238Z,15.16
2022-11-20T13:05:21.999Z,15.10
2022-11-20T13:06:56.468Z,15.04
2022-11-20T13:08:35.266Z,14.98
2022-11-20T13:10:20.350Z,14.97
2022-11-20T13:12:05.250Z,15.00
2022-11-20T13:13:59.033Z,14.97
2022-11-20T13:15:43.698Z,14.93
2022-11-20T13:17:22.869Z,14.89
2022-11-20T13:18:56.192Z,14.83
2022-11-20T13:20:30.283Z,14.85
2022-11-20T13:22:03.815Z,14.85
2022-11-20T13:23:38.439Z,14.84
2022-11-20T13:25:16.280Z,14.80
2022-11-20T13:26:49.895Z,14.80
2022-11-20T13:28:31.557Z,14.77
2022-11-20T13:30:18.190Z,14.73
2022-11-20T13:31:51.394Z,14.66
2022-11-20T13:33:29.351Z,14.63
2022-11-20T13:35:06.583Z,14.59
2022-11-20T13:36:51.303Z,14.55
2022-11-20T13:38:24.521Z,14.48
2022-11-20T13:40:15.004Z,14.48
2022-11-20T13:41:57.014Z,14.44
2022-11-20T13:43:37.366Z,14.38
2022-11-20T13:45:14.187Z,14.32
2022-11-20T13:46:48.867Z,14.26
2022-11-20T13:48:24.327Z,14.14
2022-11-20T13:50:00.257Z,14.01
2022-11-20T13:51:44.806Z,13.79
2022-11-20T13:53:35.179Z,13.80
2022-11-20T13:55:19.418Z,13.84
2022-11-20T13:57:06.573Z,13.87
2022-11-20T13:58:52.971Z,13.89
2022-11-20T14:00:27.509Z,13.81
2022-11-20T14:02:02.150Z,13.79
2022-11-20T14:04:05.756Z,13.76
2022-11-20T14:05:30.587Z,13.78
2022-11-20T14:07:07.524Z,13.77
2022-11-20T14:08:43.797Z,13.60
2022-11-20T14:10:31.323Z,13.65
2022-11-20T14:12:16.358Z,13.62
2022-11-20T14:13:58.716Z,13.64
2022-11-20T14:15:34.276Z,13.59
2022-11-20T14:17:08.888Z,13.58
2022-11-20T14:18:42.117Z,13.57
2022-11-20T14:20:19.786Z,13.62
2022-11-20T14:21:56.204Z,13.62
2022-11-20T14:23:31.272Z,13.60
2022-11-20T14:25:08.856Z,13.63
2022-11-20T14:26:46.445Z,13.55
2022-11-20T14:28:27.982Z,13.50
2022-11-20T14:30:03.994Z,13.46
2022-11-20T14:31:37.315Z,13.39
2022-11-20T14:33:14.144Z,13.34
2022-11-20T14:34:50.053Z,13.23
2022-11-20T14:36:26.306Z,13.19
2022-11-20T14:38:01.008Z,13.11
2022-11-20T14:39:36.476Z,13.11
2022-11-20T14:41:10.257Z,13.03
2022-11-20T14:42:46.384Z,12.98
2022-11-20T14:44:24.871Z,12.94
2022-11-20T14:46:00.537Z,12.90
2022-11-20T14:47:34.690Z,12.86
2022-11-20T14:49:08.086Z,12.91
2022-11-20T14:50:41.881Z,12.92
2022-11-20T14:52:17.344Z,12.91
2022-11-20T14:53:50.547Z,12.92
2022-11-20T14:55:32.166Z,12.89
2022-11-20T14:57:06.309Z,12.88
2022-11-20T14:58:40.917Z,12.90
2022-11-20T15:00:22.605Z,12.91
2022-11-20T15:02:01.511Z,12.81
2022-11-20T15:03:35.476Z,12.90
2022-11-20T15:05:09.328Z,12.87
2022-11-20T15:06:52.226Z,12.86
2022-11-20T15:08:25.500Z,12.84
2022-11-20T15:10:02.989Z,12.83
2022-11-20T15:11:37.756Z,12.76
2022-11-20T15:13:15.202Z,12.77
2022-11-20T15:14:50.463Z,12.76
2022-11-20T15:16:26.143Z,12.75
2022-11-20T15:18:00.321Z,12.70
2022-11-20T15:19:33.484Z,12.67
2022-11-20T15:21:12.970Z,12.62
2022-11-20T15:22:46.206Z,12.60
2022-11-20T15:24:19.984Z,12.55
2022-11-20T15:25:53.369Z,12.48
2022-11-20T15:27:26.615Z,12.50
2022-11-20T15:28:59.920Z,12.51
2022-11-20T15:30:35.529Z,12.49
2022-11-20T15:32:13.391Z,12.57
2022-11-20T15:33:46.999Z,12.60
2022-11-20T15:35:20.417Z,12.62
2022-11-20T15:36:54.058Z,12.66
2022-11-20T15:38:27.365Z,12.70
2022-11-20T15:40:00.523Z,12.74
2022-11-20T15:41:33.730Z,12.76
2022-11-20T15:43:12.563Z,12.76
2022-11-20T15:44:46.810Z,12.78
2022-11-20T15:46:28.655Z,12.81
2022-11-20T15:48:02.298Z,12.79
2022-11-20T15:49:35.598Z,12.80
2022-11-20T15:51:21.695Z,12.82
2022-11-20T15:52:54.951Z,12.80
2022-11-20T15:54:28.137Z,12.80
2022-11-20T15:56:01.333Z,12.79
2022-11-20T15:57:35.324Z,12.79
2022-11-20T15:59:08.478Z,12.82
2022-11-20T16:00:41.983Z,12.82
2022-11-20T16:02:19.278Z,12.82
2022-11-20T16:03:52.867Z,12.83
2022-11-20T16:05:27.188Z,12.83
2022-11-20T16:07:00.404Z,12.69
2022-11-20T16:08:33.667Z,12.86
2022-11-20T16:10:07.499Z,12.92
2022-11-20T16:11:41.472Z,12.98
2022-11-20T16:13:33.478Z,13.02
2022-11-20T16:15:25.324Z,13.06
2022-11-20T16:16:58.561Z,13.06
2022-11-20T16:18:34.395Z,13.09
2022-11-20T16:20:12.612Z,13.09
2022-11-20T16:21:46.234Z,13.10
2022-11-20T16:23:19.981Z,13.11
2022-11-20T16:24:54.073Z,13.07
2022-11-20T16:26:27.394Z,13.04
2022-11-20T16:28:00.789Z,13.00
2022-11-20T16:29:34.131Z,12.95
2022-11-20T16:31:12.026Z,12.94
2022-11-20T16:32:45.316Z,12.91
2022-11-20T16:34:20.003Z,12.93
2022-11-20T16:35:53.359Z,12.94
2022-11-20T16:37:26.809Z,12.96
2022-11-20T16:39:01.774Z,12.98
2022-11-20T16:40:35.235Z,13.03
2022-11-20T16:42:08.527Z,13.04
2022-11-20T16:43:46.785Z,13.03
2022-11-20T16:45:25.482Z,12.99
2022-11-20T16:47:01.262Z,12.97
2022-11-20T16:48:34.399Z,12.97
2022-11-20T16:50:09.909Z,12.90
2022-11-20T16:51:43.256Z,13.03
2022-11-20T16:53:16.753Z,13.06
2022-11-20T16:54:49.943Z,13.02
2022-11-20T16:56:25.254Z,13.14
2022-11-20T16:57:58.582Z,13.16
2022-11-20T16:59:31.800Z,13.11
2022-11-20T17:01:10.679Z,13.20
2022-11-20T17:02:44.007Z,13.22
2022-11-20T17:04:17.406Z,13.18
2022-11-20T17:05:52.129Z,13.14
2022-11-20T17:07:25.497Z,13.11
2022-11-20T17:08:59.591Z,13.14
2022-11-20T17:10:33.079Z,13.14
2022-11-20T17:12:10.214Z,13.17
2022-11-20T17:13:43.735Z,13.21
2022-11-20T17:15:17.113Z,13.16
2022-11-20T17:16:50.437Z,13.20
2022-11-20T17:18:23.945Z,13.20
2022-11-20T17:19:57.196Z,13.19
2022-11-20T17:21:32.883Z,13.16
2022-11-20T17:23:06.176Z,13.14
2022-11-20T17:24:39.533Z,13.14
2022-11-20T17:26:16.839Z,13.14
2022-11-20T17:27:50.145Z,13.09
2022-11-20T17:29:24.387Z,13.16
2022-11-20T17:31:01.544Z,13.18
2022-11-20T17:32:34.889Z,13.17
2022-11-20T17:34:08.919Z,13.19
2022-11-20T17:35:42.166Z,13.09
2022-11-20T17:37:16.684Z,13.18
2022-11-20T17:38:50.316Z,13.17
2022-11-20T17:40:27.580Z,13.17
2022-11-20T17:42:18.275Z,13.18
2022-11-20T17:43:55.059Z,13.18
2022-11-20T17:45:28.290Z,13.15
2022-11-20T17:47:01.483Z,13.15
2022-11-20T17:48:35.078Z,13.15
2022-11-20T17:50:09.385Z,13.15
2022-11-20T17:51:42.613Z,13.17
2022-11-20T17:53:17.169Z,13.16
2022-11-20T17:54:50.355Z,13.17
2022-11-20T17:56:41.080Z,13.20
2022-11-20T17:58:13.425Z,13.22
2022-11-20T17:59:46.596Z,13.26
2022-11-20T18:01:20.290Z,13.24
2022-11-20T18:02:53.503Z,13.17
2022-11-20T18:04:26.968Z,13.18
2022-11-20T18:06:00.300Z,13.18
2022-11-20T18:07:37.128Z,13.16
2022-11-20T18:09:15.980Z,13.16
2022-11-20T18:10:49.441Z,13.15
2022-11-20T18:12:22.970Z,13.08
2022-11-20T18:14:16.284Z,13.08
2022-11-20T18:15:49.754Z,13.13
2022-11-20T18:17:23.363Z,13.12
2022-11-20T18:18:56.995Z,13.12
2022-11-20T18:20:33.122Z,13.15
2022-11-20T18:22:10.832Z,13.16
2022-11-20T18:23:44.241Z,13.17
2022-11-20T18:25:19.067Z,13.19
2022-11-20T18:26:52.549Z,13.13
2022-11-20T18:28:25.942Z,13.09
2022-11-20T18:29:59.609Z,13.04
2022-11-20T18:31:33.659Z,13.02
2022-11-20T18:33:07.148Z,13.00
2022-11-20T18:34:40.924Z,12.97
2022-11-20T18:36:17.312Z,13.01
2022-11-20T18:37:52.118Z,12.95
2022-11-20T18:39:25.693Z,12.96
2022-11-20T18:41:03.672Z,12.95
2022-11-20T18:42:55.957Z,12.95
2022-11-20T18:44:48.136Z,12.93
2022-11-20T18:46:22.181Z,12.89
2022-11-20T18:47:55.400Z,12.88
2022-11-20T18:49:27.958Z,12.80
2022-11-20T18:51:06.914Z,12.75
2022-11-20T18:52:44.666Z,12.84
2022-11-20T18:54:18.203Z,12.80
2022-11-20T18:55:51.362Z,12.83
2022-11-20T18:57:27.941Z,12.81
2022-11-20T18:59:01.722Z,12.81
2022-11-20T19:00:35.048Z,12.83
2022-11-20T19:02:10.364Z,12.78
2022-11-20T19:03:44.162Z,12.78
2022-11-20T19:05:17.438Z,12.79
2022-11-20T19:06:52.948Z,12.81
2022-11-20T19:08:26.149Z,12.82
2022-11-20T19:10:03.740Z,12.86
2022-11-20T19:11:38.665Z,12.89
2022-11-20T19:13:13.517Z,12.89
2022-11-20T19:14:49.406Z,12.88
2022-11-20T19:16:23.753Z,12.88
2022-11-20T19:17:58.983Z,12.86
2022-11-20T19:19:32.684Z,12.85
2022-11-20T19:21:09.335Z,12.83
2022-11-20T19:22:42.825Z,12.77
2022-11-20T19:24:16.488Z,12.72
2022-11-20T19:25:50.136Z,12.73
2022-11-20T19:27:23.919Z,12.73
2022-11-20T19:28:59.476Z,12.69
2022-11-20T19:30:32.795Z,12.69
2022-11-20T19:32:06.450Z,12.68
2022-11-20T19:33:39.791Z,12.62
2022-11-20T19:35:13.443Z,12.59
2022-11-20T19:36:46.809Z,12.58
2022-11-20T19:38:20.144Z,12.57
2022-11-20T19:39:53.738Z,12.56
2022-11-20T19:41:30.601Z,12.53
2022-11-20T19:43:04.066Z,12.53
2022-11-20T19:44:38.956Z,12.52
2022-11-20T19:46:12.208Z,12.45
2022-11-20T19:48:06.491Z,12.42
2022-11-20T19:49:40.236Z,12.33
2022-11-20T19:51:15.577Z,12.41
2022-11-20T19:52:48.884Z,12.39
2022-11-20T19:54:22.228Z,12.34
2022-11-20T19:55:58.555Z,12.36
2022-11-20T19:57:33.016Z,12.34
2022-11-20T19:59:06.196Z,12.32
2022-11-20T20:00:40.899Z,12.28
2022-11-20T20:02:14.179Z,12.26
2022-11-20T20:03:48.908Z,12.25
2022-11-20T20:05:22.211Z,12.25
2022-11-20T20:06:55.419Z,12.26
2022-11-20T20:08:28.717Z,12.24
2022-11-20T20:10:02.565Z,12.24
2022-11-20T20:11:36.838Z,12.22
2022-11-20T20:13:10.187Z,12.19
2022-11-20T20:14:43.311Z,12.15
2022-11-20T20:16:19.732Z,12.08
2022-11-20T20:17:53.455Z,12.04
2022-11-20T20:19:26.926Z,12.04
2022-11-20T20:21:03.962Z,12.05
2022-11-20T20:22:37.199Z,12.02
2022-11-20T20:24:11.633Z,12.04
2022-11-20T20:25:49.381Z,12.05
2022-11-20T20:27:22.720Z,12.05
2022-11-20T20:28:56.452Z,12.06
2022-11-20T20:30:29.722Z,12.06
2022-11-20T20:32:04.320Z,11.96
2022-11-20T20:33:38.511Z,11.92
2022-11-20T20:35:11.736Z,11.96
2022-11-20T20:36:44.874Z,11.99
2022-11-20T20:38:18.154Z,12.01
2022-11-20T20:39:51.373Z,12.01